Tuesday, September 02, 2014
21:24 UTC
  |  Log In   |  Register Free
Airport Search:

Bishop International Airport
(KFNT)

FAA data valid effective July 24, 2014 until September 18, 2014 (unless otherwise noted).

 
 
 
 
 
 
 
 
 
 
 
 
 
 

Current Aviation Weather for Bishop International Airport (KFNT)

The most recent METAR observation for KFNT was updated at: 2053 UTC
METAR Summary (Translated METAR)
KFNT
022053Z 31011KT 10SM FEW047 27/14 A2988 RMK AO2 SLP114 T02670139 52007
KRNP
(17.4 nm NW from KFNT)
021954Z AUTO 26010KT 10SM SCT044 SCT050 25/14 A2987 RMK AO2 T02500137
TAF Summary (Translated TAF)
KFNT
021720Z 0218/0318 27010KT P6SM SCT050 FM030100 24005KT P6SM SCT070 FM031500 23008KT P6SM FEW070
KPTK
(23 nm SE from KFNT)
021720Z 0218/0318 27010KT P6SM SCT025 BKN100 FM030100 26005KT P6SM SCT070 FM031500 23008KT P6SM SKC
  Airport Weather Conditions for KFNT

 Current Weather at FNT
80° F
A Few Clouds
Northwest winds at 12.7 mph
FNT NOAA Radar

Pressure: 29.88 in
Humidity: 45%
Wind: Northwest at 12.7 MPH (11 KT)
Dew Point: 57.0°F
Visibility: 10.00 mi


Airport Weather Forecast for KFNT

Translated METAR and TAF for KFNT
Translated METAR for KFNT (2118 UTC 02 September 2014)
found at http://aviationweather.gov/adds/metars/
 
METAR text: KFNT 022053Z 31011KT 10SM FEW047 27/14 A2988 RMK AO2 SLP114 T02670139 52007
Conditions at: KFNT (FLINT , MI, US) observed 2053 UTC 02 September 2014
Temperature: 26.7°C (80°F)
Dewpoint: 13.9°C (57°F) [RH = 45%]
Pressure (altimeter): 29.88 inches Hg (1011.9 mb)
[Sea-level pressure: 1011.4 mb]
Winds: from the NW (310 degrees) at 13 MPH (11 knots; 5.7 m/s)
Visibility: 10 or more miles (16+ km)
Ceiling: at least 12,000 feet AGL
Clouds: few clouds at 4700 feet AGL
Weather: no significant weather observed at this time
Translated TAF for KFNT
Forecast for: KFNT (FLINT , MI, US)
TAF Text: KFNT 021720Z 0218/0318 27010KT P6SM SCT050
Forecast period: 1800 UTC 02 September 2014 to 0100 UTC 03 September 2014
Forecast type: FROM: standard forecast or significant change
Winds: from the W (270 degrees) at 12 MPH (10 knots; 5.2 m/s)
Visibility: 6 or more miles (10+ km)
Clouds: scattered clouds at 5000 feet AGL
Weather: no significant weather forecast for this period
TAF Text: FM030100 24005KT P6SM SCT070
Forecast period: 0100 to 1500 UTC 03 September 2014
Forecast type: FROM: standard forecast or significant change
Winds: from the WSW (240 degrees) at 6 MPH (5 knots; 2.6 m/s)
Visibility: 6 or more miles (10+ km)
Clouds: scattered clouds at 7000 feet AGL
Weather: no significant weather forecast for this period
TAF Text: FM031500 23008KT P6SM FEW070
Forecast period: 1500 to 1800 UTC 03 September 2014
Forecast type: FROM: standard forecast or significant change
Winds: from the SW (230 degrees) at 9 MPH (8 knots; 4.2 m/s)
Visibility: 6 or more miles (10+ km)
Clouds: few clouds at 7000 feet AGL
Weather: no significant weather forecast for this period

Find All Airport Services Find A Hotel Find A Rental Car Find A Golf Course Find A Restaurant $100 Hamburger



FBO's on the Field
FBO Company Facility Photos Services Transportation Aviation Fuel Prices: Prices include tax
Catering Weather Repair Courtesy Rental Type 100LL JetA JetA+ MOGAS 8087
 
Avflight Flint

This FBO has not yet been rated
FS:Avfuel
Last Updated: Sep-02
Login to update fuel prices
SS:
Contact Avflight FlintMore FBO Information
 
Add another FBO Facility Photos Catering Weather Repair Courtesy Rental Type 100LL JetA JetA+ MOGAS 8087
Services Transportation Aviation Fuel Prices: Prices include tax


GlobalAir.com Airport Resource Center model-print
model-print
model-print
model-print